createdAt,value
2019-02-24T00:00:18.635Z,71.86
2019-02-24T00:00:59.533Z,71.66
2019-02-24T00:01:40.477Z,72.14
2019-02-24T00:02:21.168Z,72.43
2019-02-24T00:03:01.760Z,71.86
2019-02-24T00:03:42.411Z,71.76
2019-02-24T00:04:23.038Z,71.66
2019-02-24T00:05:03.629Z,71.66
2019-02-24T00:05:44.220Z,71.95
2019-02-24T00:06:24.818Z,71.86
2019-02-24T00:07:05.423Z,71.57
2019-02-24T00:07:46.023Z,71.66
2019-02-24T00:08:26.623Z,71.76
2019-02-24T00:09:07.231Z,72.05
2019-02-24T00:09:47.859Z,71.57
2019-02-24T00:10:28.477Z,72.05
2019-02-24T00:11:09.806Z,72.05
2019-02-24T00:11:49.749Z,71.86
2019-02-24T00:12:30.349Z,71.95
2019-02-24T00:13:10.998Z,72.05
2019-02-24T00:13:51.624Z,72.05
2019-02-24T00:14:32.269Z,72.14
2019-02-24T00:15:12.930Z,72.05
2019-02-24T00:15:53.575Z,72.05
2019-02-24T00:16:34.214Z,72.14
2019-02-24T00:17:14.817Z,72.05
2019-02-24T00:17:55.427Z,72.24
2019-02-24T00:18:36.038Z,72.14
2019-02-24T00:19:16.783Z,72.05
2019-02-24T00:19:57.407Z,72.14
2019-02-24T00:20:38.039Z,72.05
2019-02-24T00:21:22.458Z,72.24
2019-02-24T00:22:03.093Z,71.76
2019-02-24T00:22:43.747Z,71.95
2019-02-24T00:23:24.374Z,71.76
2019-02-24T00:24:04.997Z,71.76
2019-02-24T00:24:45.625Z,71.76
2019-02-24T00:25:26.232Z,71.95
2019-02-24T00:26:06.829Z,71.86
2019-02-24T00:26:47.484Z,71.76
2019-02-24T00:27:28.138Z,71.57
2019-02-24T00:28:08.742Z,71.76
2019-02-24T00:28:49.366Z,71.37
2019-02-24T00:29:29.959Z,71.76
2019-02-24T00:30:10.599Z,71.76
2019-02-24T00:30:51.267Z,71.76
2019-02-24T00:31:31.911Z,71.76
2019-02-24T00:32:12.533Z,71.76
2019-02-24T00:32:53.185Z,71.47
2019-02-24T00:33:33.779Z,71.57
2019-02-24T00:34:14.409Z,71.28
2019-02-24T00:34:55.001Z,71.28
2019-02-24T00:35:35.638Z,71.76
2019-02-24T00:36:16.263Z,71.66
2019-02-24T00:36:56.879Z,71.09
2019-02-24T00:37:37.480Z,71.28
2019-02-24T00:38:18.191Z,71.09
2019-02-24T00:38:58.955Z,71.28
2019-02-24T00:39:39.584Z,71.37
2019-02-24T00:40:20.239Z,71.09
2019-02-24T00:41:00.846Z,71.28
2019-02-24T00:41:41.507Z,71.37
2019-02-24T00:42:22.128Z,71.66
2019-02-24T00:43:02.726Z,71.19
2019-02-24T00:43:43.346Z,71.66
2019-02-24T00:44:23.953Z,71.47
2019-02-24T00:45:04.596Z,71.57
2019-02-24T00:45:45.209Z,71.28
2019-02-24T00:46:25.852Z,71.76
2019-02-24T00:47:06.449Z,71.66
2019-02-24T00:47:47.055Z,71.19
2019-02-24T00:48:27.681Z,71.66
2019-02-24T00:49:08.362Z,71.66
2019-02-24T00:49:48.964Z,71.66
2019-02-24T00:50:29.599Z,71.66
2019-02-24T00:51:10.224Z,71.47
2019-02-24T00:51:50.842Z,71.66
2019-02-24T00:52:31.513Z,71.66
2019-02-24T00:53:12.229Z,71.37
2019-02-24T00:53:52.851Z,71.57
2019-02-24T00:54:33.433Z,71.66
2019-02-24T00:55:14.063Z,71.47
2019-02-24T00:55:54.655Z,71.57
2019-02-24T00:56:35.289Z,71.57
2019-02-24T00:57:15.899Z,71.57
2019-02-24T00:57:56.500Z,71.19
2019-02-24T00:58:37.097Z,71.19
2019-02-24T00:59:17.695Z,71.57
2019-02-24T00:59:58.335Z,71.28
2019-02-24T01:00:38.921Z,71.37
2019-02-24T01:01:19.536Z,71.28
2019-02-24T01:02:00.145Z,71.47
2019-02-24T01:02:40.745Z,71.37
2019-02-24T01:03:21.333Z,71.37
2019-02-24T01:04:01.959Z,71.37
2019-02-24T01:04:42.568Z,71.47
2019-02-24T01:05:23.175Z,71.57
2019-02-24T01:06:03.847Z,71.57
2019-02-24T01:06:44.479Z,71.47
2019-02-24T01:07:25.081Z,71.37
2019-02-24T01:08:05.678Z,71.19
2019-02-24T01:08:46.285Z,71.47
2019-02-24T01:09:26.884Z,71.47
2019-02-24T01:10:07.479Z,71.37
2019-02-24T01:10:48.081Z,71.57
2019-02-24T01:11:28.685Z,71.37
2019-02-24T01:12:09.313Z,71.57
2019-02-24T01:12:49.941Z,71.09
2019-02-24T01:13:30.561Z,71.28
2019-02-24T01:14:11.159Z,71.37
2019-02-24T01:14:51.755Z,70.99
2019-02-24T01:15:32.349Z,71.57
2019-02-24T01:16:12.953Z,71.19
2019-02-24T01:16:53.581Z,71.09
2019-02-24T01:17:34.169Z,71.19
2019-02-24T01:18:14.781Z,71.37
2019-02-24T01:18:55.385Z,71.09
2019-02-24T01:19:36.015Z,71.19
2019-02-24T01:20:16.671Z,71.47
2019-02-24T01:20:57.277Z,71.37
2019-02-24T01:21:37.925Z,71.37
2019-02-24T01:22:18.525Z,71.19
2019-02-24T01:22:59.128Z,71.19
2019-02-24T01:23:39.735Z,71.09
2019-02-24T01:24:20.341Z,71.09
2019-02-24T01:25:00.953Z,71.19
2019-02-24T01:25:41.577Z,71.19
2019-02-24T01:26:22.203Z,70.9
2019-02-24T01:27:02.796Z,70.99
2019-02-24T01:27:43.397Z,71.19
2019-02-24T01:28:25.383Z,71.19
2019-02-24T01:29:04.597Z,71.19
2019-02-24T01:29:45.207Z,70.99
2019-02-24T01:30:25.807Z,70.99
2019-02-24T01:31:06.440Z,70.99
2019-02-24T01:31:47.043Z,71.19
2019-02-24T01:32:27.652Z,71.28
2019-02-24T01:33:08.255Z,71.19
2019-02-24T01:33:48.915Z,71.37
2019-02-24T01:34:29.529Z,71.19
2019-02-24T01:35:10.124Z,71.47
2019-02-24T01:35:50.711Z,71.09
2019-02-24T01:36:31.329Z,71.19
2019-02-24T01:37:11.947Z,71.19
2019-02-24T01:37:52.545Z,71.09
2019-02-24T01:38:33.141Z,71.19
2019-02-24T01:39:13.763Z,71.19
2019-02-24T01:39:54.361Z,71.19
2019-02-24T01:40:34.941Z,71.19
2019-02-24T01:41:15.545Z,71.19
2019-02-24T01:41:56.165Z,71.09
2019-02-24T01:42:36.791Z,71.19
2019-02-24T01:43:17.426Z,71.09
2019-02-24T01:43:58.047Z,70.9
2019-02-24T01:44:38.655Z,71.19
2019-02-24T01:45:19.247Z,71.09
2019-02-24T01:45:59.855Z,71.09
2019-02-24T01:46:40.744Z,71.47
2019-02-24T01:47:21.325Z,71.28
2019-02-24T01:48:02.006Z,71.37
2019-02-24T01:48:42.609Z,70.99
2019-02-24T01:49:23.203Z,71.19
2019-02-24T01:50:03.815Z,71.19
2019-02-24T01:50:44.429Z,70.99
2019-02-24T01:51:25.033Z,71.19
2019-02-24T01:52:05.624Z,71.47
2019-02-24T01:52:46.245Z,71.57
2019-02-24T01:53:26.901Z,71.19
2019-02-24T01:54:07.541Z,70.99
2019-02-24T01:54:48.155Z,71.47
2019-02-24T01:55:28.782Z,71.19
2019-02-24T01:56:09.387Z,71.57
2019-02-24T01:56:50.005Z,71.47
2019-02-24T01:57:30.599Z,71.19
2019-02-24T01:58:11.219Z,71.47
2019-02-24T01:58:51.849Z,71.37
2019-02-24T01:59:32.445Z,71.57
2019-02-24T02:00:13.070Z,71.37
2019-02-24T02:00:53.669Z,71.76
2019-02-24T02:01:34.275Z,71.57
2019-02-24T02:02:14.894Z,71.57
2019-02-24T02:02:55.513Z,71.57
2019-02-24T02:03:36.129Z,71.47
2019-02-24T02:04:16.722Z,71.47
2019-02-24T02:04:58.553Z,71.37
2019-02-24T02:05:37.949Z,71.37
2019-02-24T02:06:18.569Z,71.66
2019-02-24T02:06:59.183Z,71.47
2019-02-24T02:07:54.343Z,71.66
2019-02-24T02:08:34.938Z,71.66
2019-02-24T02:09:15.545Z,71.57
2019-02-24T02:09:56.201Z,71.47
2019-02-24T02:10:36.832Z,71.57
2019-02-24T02:11:17.497Z,71.37
2019-02-24T02:11:58.065Z,71.47
2019-02-24T02:12:38.675Z,71.47
2019-02-24T02:13:19.339Z,71.57
2019-02-24T02:13:59.951Z,71.47
2019-02-24T02:14:40.589Z,71.37
2019-02-24T02:15:21.183Z,71.57
2019-02-24T02:16:01.791Z,71.47
2019-02-24T02:16:42.399Z,71.47
2019-02-24T02:17:23.006Z,71.37
2019-02-24T02:18:03.603Z,71.57
2019-02-24T02:18:44.216Z,71.47
2019-02-24T02:19:24.864Z,71.37
2019-02-24T02:20:05.481Z,71.37
2019-02-24T02:20:46.082Z,71.66
2019-02-24T02:21:26.694Z,71.37
2019-02-24T02:22:07.305Z,71.57
2019-02-24T02:22:47.925Z,71.37
2019-02-24T02:23:28.537Z,71.19
2019-02-24T02:24:09.161Z,71.37
2019-02-24T02:24:49.813Z,71.37
2019-02-24T02:25:30.431Z,71.37
2019-02-24T02:26:11.039Z,71.28
2019-02-24T02:26:51.645Z,71.47
2019-02-24T02:27:32.262Z,71.19
2019-02-24T02:28:12.899Z,70.99
2019-02-24T02:28:53.520Z,71.57
2019-02-24T02:29:34.147Z,71.47
2019-02-24T02:30:14.744Z,71.66
2019-02-24T02:30:55.359Z,71.47
2019-02-24T02:31:36.007Z,71.47
2019-02-24T02:32:16.775Z,71.47
2019-02-24T02:32:57.443Z,71.66
2019-02-24T02:33:38.053Z,71.47
2019-02-24T02:34:18.751Z,71.57
2019-02-24T02:34:59.341Z,71.37
2019-02-24T02:35:39.973Z,71.57
2019-02-24T02:36:20.671Z,71.28
2019-02-24T02:37:01.293Z,70.99
2019-02-24T02:37:41.900Z,71.19
2019-02-24T02:38:22.510Z,71.37
2019-02-24T02:39:03.163Z,70.9
2019-02-24T02:39:43.788Z,71.19
2019-02-24T02:40:24.589Z,71.47
2019-02-24T02:41:05.165Z,71.19
2019-02-24T02:41:45.770Z,70.9
2019-02-24T02:42:26.383Z,70.99
2019-02-24T02:43:06.968Z,70.9
2019-02-24T02:43:47.568Z,70.9
2019-02-24T02:44:28.171Z,71.09
2019-02-24T02:45:08.766Z,70.9
2019-02-24T02:45:49.385Z,71.47
2019-02-24T02:46:30.014Z,71.66
2019-02-24T02:47:10.605Z,71.28
2019-02-24T02:47:51.196Z,71.19
2019-02-24T02:48:31.798Z,71.19
2019-02-24T02:49:12.409Z,71.57
2019-02-24T02:49:53.002Z,70.99
2019-02-24T02:50:33.608Z,70.99
2019-02-24T02:51:14.259Z,71.37
2019-02-24T02:51:54.855Z,71.66
2019-02-24T02:52:35.466Z,70.99
2019-02-24T02:53:16.060Z,71.37
2019-02-24T02:53:56.659Z,71.28
2019-02-24T02:54:37.314Z,71.19
2019-02-24T02:55:17.881Z,71.19
2019-02-24T02:55:58.489Z,71.19
2019-02-24T02:56:39.103Z,70.99
2019-02-24T02:57:19.722Z,71.19
2019-02-24T02:58:00.339Z,71.19
2019-02-24T02:58:40.927Z,71.47
2019-02-24T02:59:21.529Z,70.99
2019-02-24T03:00:02.129Z,70.9
2019-02-24T03:00:42.745Z,71.28
2019-02-24T03:01:23.345Z,71.19
2019-02-24T03:02:03.942Z,71.19
2019-02-24T03:02:44.559Z,70.99
2019-02-24T03:03:25.163Z,71.19
2019-02-24T03:04:05.752Z,71.47
2019-02-24T03:04:46.355Z,71.66
2019-02-24T03:05:26.941Z,71.19
2019-02-24T03:06:07.557Z,70.99
2019-02-24T03:06:48.161Z,71.47
2019-02-24T03:07:28.767Z,71.19
2019-02-24T03:08:09.375Z,71.28
2019-02-24T03:08:49.972Z,71.19
2019-02-24T03:09:30.571Z,71.19
2019-02-24T03:10:11.181Z,71.19
2019-02-24T03:10:51.766Z,71.19
2019-02-24T03:11:32.371Z,71.19
2019-02-24T03:12:12.976Z,71.19
2019-02-24T03:12:53.585Z,71.19
2019-02-24T03:13:34.177Z,71.19
2019-02-24T03:14:14.778Z,70.86
2019-02-24T03:14:55.411Z,71.37
2019-02-24T03:15:36.003Z,71.19
2019-02-24T03:16:16.589Z,70.99
2019-02-24T03:16:57.193Z,71.09
2019-02-24T03:17:37.807Z,71.09
2019-02-24T03:18:18.411Z,71.19
2019-02-24T03:18:59.019Z,71.19
2019-02-24T03:19:39.615Z,71.09
2019-02-24T03:20:20.195Z,70.99
2019-02-24T03:21:00.793Z,71.19
2019-02-24T03:21:41.400Z,71.19
2019-02-24T03:22:22.024Z,70.99
2019-02-24T03:23:02.620Z,70.99
2019-02-24T03:23:43.233Z,70.99
2019-02-24T03:24:23.823Z,71.19
2019-02-24T03:25:04.407Z,71.28
2019-02-24T03:25:45.012Z,71.19
2019-02-24T03:26:25.626Z,70.99
2019-02-24T03:27:06.229Z,70.99
2019-02-24T03:27:46.836Z,70.99
2019-02-24T03:28:27.439Z,71.28
2019-02-24T03:29:08.031Z,71.19
2019-02-24T03:29:48.646Z,71.19
2019-02-24T03:30:29.232Z,71.19
2019-02-24T03:31:09.838Z,70.96
2019-02-24T03:31:50.442Z,71.19
2019-02-24T03:32:31.046Z,71.19
2019-02-24T03:33:11.652Z,71.66
2019-02-24T03:33:52.252Z,71.19
2019-02-24T03:34:32.843Z,71.15
2019-02-24T03:35:13.435Z,71.09
2019-02-24T03:35:54.060Z,71.09
2019-02-24T03:36:34.639Z,71.19
2019-02-24T03:37:15.231Z,71.09
2019-02-24T03:37:55.861Z,71.15
2019-02-24T03:38:36.464Z,71.09
2019-02-24T03:39:17.068Z,71.09
2019-02-24T03:39:57.667Z,71.09
2019-02-24T03:40:38.276Z,71.37
2019-02-24T03:41:18.871Z,71.47
2019-02-24T03:41:59.465Z,71.57
2019-02-24T03:42:40.057Z,71.37
2019-02-24T03:43:20.662Z,70.99
2019-02-24T03:44:01.270Z,71.19
2019-02-24T03:44:41.882Z,71.47
2019-02-24T03:45:22.482Z,71.15
2019-02-24T03:46:03.080Z,71.19
2019-02-24T03:46:43.678Z,71.15
2019-02-24T03:47:24.276Z,71.19
2019-02-24T03:48:04.873Z,71.09
2019-02-24T03:48:45.483Z,71.05
2019-02-24T03:49:26.090Z,71.19
2019-02-24T03:50:06.683Z,71.19
2019-02-24T03:50:47.300Z,71.09
2019-02-24T03:51:27.907Z,71.09
2019-02-24T03:52:08.505Z,71.57
2019-02-24T03:52:49.098Z,71.09
2019-02-24T03:53:29.709Z,71.19
2019-02-24T03:54:10.342Z,71.15
2019-02-24T03:54:50.949Z,71.19
2019-02-24T03:55:31.565Z,71.19
2019-02-24T03:56:12.156Z,71.15
2019-02-24T03:56:52.761Z,70.99
2019-02-24T03:57:33.375Z,71.09
2019-02-24T03:58:13.966Z,71.09
2019-02-24T03:58:54.557Z,71.15
2019-02-24T03:59:35.163Z,71.09
2019-02-24T04:00:15.775Z,71.19
2019-02-24T04:00:56.357Z,71.19
2019-02-24T04:01:36.957Z,71.09
2019-02-24T04:02:17.570Z,71.09
2019-02-24T04:02:58.159Z,71.57
2019-02-24T04:03:38.773Z,71.19
2019-02-24T04:04:19.359Z,71.05
2019-02-24T04:04:59.953Z,71.19
2019-02-24T04:05:40.562Z,71.19
2019-02-24T04:06:21.173Z,70.96
2019-02-24T04:07:01.798Z,71.15
2019-02-24T04:07:42.404Z,71.09
2019-02-24T04:08:23.001Z,71.09
2019-02-24T04:09:03.617Z,71.19
2019-02-24T04:09:44.236Z,71.15
2019-02-24T04:10:24.848Z,71.19
2019-02-24T04:11:05.459Z,71.15
2019-02-24T04:11:46.078Z,71.15
2019-02-24T04:12:26.667Z,71.19
2019-02-24T04:13:07.279Z,70.96
2019-02-24T04:13:47.878Z,71.19
2019-02-24T04:14:28.500Z,71.19
2019-02-24T04:15:09.109Z,70.96
2019-02-24T04:15:49.716Z,71.09
2019-02-24T04:16:30.309Z,71.15
2019-02-24T04:17:10.932Z,71.15
2019-02-24T04:17:51.521Z,70.96
2019-02-24T04:18:32.113Z,70.96
2019-02-24T04:19:12.708Z,70.96
2019-02-24T04:19:53.303Z,71.25
2019-02-24T04:20:33.929Z,71.19
2019-02-24T04:21:14.517Z,71.15
2019-02-24T04:21:55.128Z,71.15
2019-02-24T04:22:35.726Z,71.15
2019-02-24T04:23:16.353Z,71.19
2019-02-24T04:23:56.982Z,71.15
2019-02-24T04:24:37.591Z,71.15
2019-02-24T04:25:18.194Z,70.96
2019-02-24T04:25:58.798Z,71.37
2019-02-24T04:26:39.412Z,71.25
2019-02-24T04:27:20.014Z,70.96
2019-02-24T04:28:00.630Z,71.28
2019-02-24T04:28:41.248Z,71.15
2019-02-24T04:29:24.657Z,71.15
2019-02-24T04:30:02.488Z,71.15
2019-02-24T04:30:43.091Z,70.96
2019-02-24T04:31:23.679Z,70.96
2019-02-24T04:32:04.268Z,70.99
2019-02-24T04:32:44.858Z,71.25
2019-02-24T04:33:25.472Z,71.15
2019-02-24T04:34:06.071Z,71.15
2019-02-24T04:34:46.687Z,71.25
2019-02-24T04:35:27.272Z,71.15
2019-02-24T04:36:07.885Z,70.9
2019-02-24T04:36:48.517Z,71.05
2019-02-24T04:37:29.116Z,71.15
2019-02-24T04:38:09.725Z,71.47
2019-02-24T04:38:50.325Z,71.19
2019-02-24T04:39:30.930Z,70.86
2019-02-24T04:40:11.534Z,71.34
2019-02-24T04:40:52.149Z,70.96
2019-02-24T04:41:32.742Z,71.47
2019-02-24T04:42:13.338Z,71.15
2019-02-24T04:42:53.937Z,70.9
2019-02-24T04:43:34.538Z,71.15
2019-02-24T04:44:15.146Z,71.53
2019-02-24T04:44:55.750Z,71.37
2019-02-24T04:45:36.362Z,71.44
2019-02-24T04:46:16.962Z,70.86
2019-02-24T04:46:57.572Z,71.15
2019-02-24T04:47:38.198Z,70.86
2019-02-24T04:48:18.800Z,71.15
2019-02-24T04:48:59.400Z,70.86
2019-02-24T04:49:39.993Z,70.86
2019-02-24T04:50:20.636Z,71.57
2019-02-24T04:51:01.228Z,70.96
2019-02-24T04:51:41.822Z,71.53
2019-02-24T04:52:22.418Z,71.44
2019-02-24T04:53:03.015Z,71.44
2019-02-24T04:53:43.620Z,71.15
2019-02-24T04:54:24.222Z,71.34
2019-02-24T04:55:04.833Z,71.53
2019-02-24T04:55:45.421Z,71.34
2019-02-24T04:56:26.019Z,71.66
2019-02-24T04:57:06.625Z,71.66
2019-02-24T04:57:47.227Z,71.53
2019-02-24T04:58:27.836Z,71.53
2019-02-24T04:59:08.756Z,71.66
2019-02-24T04:59:49.026Z,71.44
2019-02-24T05:00:29.630Z,71.47
2019-02-24T05:01:10.244Z,71.34
2019-02-24T05:01:50.843Z,71.44
2019-02-24T05:02:31.458Z,71.37
2019-02-24T05:03:12.062Z,71.53
2019-02-24T05:03:52.666Z,71.34
2019-02-24T05:04:33.338Z,71.37
2019-02-24T05:05:13.924Z,71.28
2019-02-24T05:05:54.521Z,71.44
2019-02-24T05:06:35.122Z,71.34
2019-02-24T05:07:15.725Z,71.37
2019-02-24T05:07:56.313Z,71.57
2019-02-24T05:08:36.908Z,71.25
2019-02-24T05:09:17.534Z,71.09
2019-02-24T05:09:58.141Z,71.57
2019-02-24T05:10:38.749Z,71.37
2019-02-24T05:11:19.350Z,71.53
2019-02-24T05:11:59.962Z,71.63
2019-02-24T05:12:40.567Z,71.44
2019-02-24T05:13:21.204Z,71.34
2019-02-24T05:14:01.793Z,71.37
2019-02-24T05:14:42.396Z,71.44
2019-02-24T05:15:22.978Z,71.53
2019-02-24T05:16:03.646Z,71.53
2019-02-24T05:16:44.252Z,71.53
2019-02-24T05:17:24.858Z,71.15
2019-02-24T05:18:05.460Z,71.37
2019-02-24T05:18:46.051Z,71.44
2019-02-24T05:19:26.640Z,71.34
2019-02-24T05:20:07.242Z,71.34
2019-02-24T05:20:47.832Z,71.47
2019-02-24T05:21:28.427Z,71.57
2019-02-24T05:22:09.063Z,71.09
2019-02-24T05:22:49.650Z,71.09
2019-02-24T05:23:30.276Z,70.96
2019-02-24T05:24:10.862Z,71.15
2019-02-24T05:24:51.468Z,70.99
2019-02-24T05:25:32.062Z,70.96
2019-02-24T05:26:12.656Z,71.44
2019-02-24T05:26:53.250Z,71.25
2019-02-24T05:27:33.859Z,71.19
2019-02-24T05:28:14.468Z,71.63
2019-02-24T05:28:55.074Z,70.96
2019-02-24T05:29:44.596Z,71.19
2019-02-24T05:30:16.262Z,70.86
2019-02-24T05:30:56.868Z,71.19
2019-02-24T05:31:37.465Z,71.25
2019-02-24T05:32:18.096Z,71.19
2019-02-24T05:32:58.696Z,70.86
2019-02-24T05:33:39.311Z,71.19
2019-02-24T05:34:19.917Z,71.19
2019-02-24T05:35:00.506Z,71.15
2019-02-24T05:35:41.138Z,71.28
2019-02-24T05:36:21.736Z,71.44
2019-02-24T05:37:02.334Z,71.05
2019-02-24T05:37:42.935Z,71.44
2019-02-24T05:38:23.546Z,71.44
2019-02-24T05:39:04.161Z,71.34
2019-02-24T05:39:44.790Z,71.34
2019-02-24T05:40:25.376Z,71.37
2019-02-24T05:41:05.978Z,71.47
2019-02-24T05:41:46.572Z,71.66
2019-02-24T05:42:27.172Z,71.25
2019-02-24T05:43:07.806Z,71.63
2019-02-24T05:43:48.442Z,71.34
2019-02-24T05:44:29.054Z,71.28
2019-02-24T05:45:09.650Z,71.53
2019-02-24T05:45:50.254Z,71.37
2019-02-24T05:46:30.869Z,71.53
2019-02-24T05:47:11.458Z,71.34
2019-02-24T05:47:52.072Z,71.63
2019-02-24T05:48:33.675Z,71.34
2019-02-24T05:49:13.276Z,71.34
2019-02-24T05:49:53.896Z,71.53
2019-02-24T05:50:34.504Z,71.15
2019-02-24T05:51:15.100Z,71.05
2019-02-24T05:51:55.701Z,70.96
2019-02-24T05:52:36.318Z,71.53
2019-02-24T05:53:16.938Z,70.96
2019-02-24T05:53:57.538Z,70.96
2019-02-24T05:54:38.148Z,71.15
2019-02-24T05:55:18.752Z,71.53
2019-02-24T05:55:59.350Z,71.34
2019-02-24T05:56:39.960Z,71.34
2019-02-24T05:57:20.576Z,71.53
2019-02-24T05:58:01.188Z,71.63
2019-02-24T05:58:41.781Z,71.53
2019-02-24T05:59:22.370Z,71.63
2019-02-24T06:00:03.006Z,71.63
2019-02-24T06:00:43.614Z,71.72
2019-02-24T06:01:24.218Z,71.34
2019-02-24T06:02:04.808Z,71.34
2019-02-24T06:02:45.408Z,71.44
2019-02-24T06:03:26.002Z,71.63
2019-02-24T06:04:06.622Z,71.37
2019-02-24T06:04:47.208Z,71.63
2019-02-24T06:05:27.802Z,71.34
2019-02-24T06:06:08.425Z,71.44
2019-02-24T06:06:49.026Z,71.44
2019-02-24T06:07:29.627Z,71.44
2019-02-24T06:08:10.225Z,71.44
2019-02-24T06:08:50.834Z,71.53
2019-02-24T06:09:31.432Z,71.44
2019-02-24T06:10:12.025Z,71.34
2019-02-24T06:10:52.648Z,71.44
2019-02-24T06:11:33.248Z,71.34
2019-02-24T06:12:13.860Z,71.34
2019-02-24T06:12:54.458Z,71.44
2019-02-24T06:13:35.057Z,71.44
2019-02-24T06:14:15.660Z,71.44
2019-02-24T06:14:56.261Z,71.44
2019-02-24T06:15:36.874Z,71.34
2019-02-24T06:16:17.498Z,71.34
2019-02-24T06:16:58.100Z,71.34
2019-02-24T06:17:38.704Z,71.44
2019-02-24T06:18:19.290Z,71.44
2019-02-24T06:18:59.901Z,71.34
2019-02-24T06:19:40.529Z,71.53
2019-02-24T06:20:21.150Z,71.44
2019-02-24T06:21:01.780Z,71.34
2019-02-24T06:21:42.384Z,71.44
2019-02-24T06:22:22.985Z,71.53
2019-02-24T06:23:03.586Z,71.53
2019-02-24T06:23:44.194Z,71.44
2019-02-24T06:24:24.808Z,71.63
2019-02-24T06:25:05.406Z,71.34
2019-02-24T06:25:46.002Z,71.34
2019-02-24T06:26:26.590Z,71.44
2019-02-24T06:27:07.188Z,71.63
2019-02-24T06:27:47.793Z,71.44
2019-02-24T06:28:28.412Z,71.44
2019-02-24T06:29:09.026Z,71.44
2019-02-24T06:29:49.636Z,71.25
2019-02-24T06:30:30.226Z,71.44
2019-02-24T06:31:10.828Z,71.44
2019-02-24T06:31:51.443Z,71.15
2019-02-24T06:32:32.055Z,71.44
2019-02-24T06:33:12.658Z,71.25
2019-02-24T06:33:53.254Z,71.53
2019-02-24T06:34:33.881Z,71.44
2019-02-24T06:35:14.478Z,71.53
2019-02-24T06:35:55.070Z,71.53
2019-02-24T06:36:35.698Z,71.44
2019-02-24T06:37:16.304Z,71.15
2019-02-24T06:37:56.914Z,71.53
2019-02-24T06:38:37.504Z,71.34
2019-02-24T06:39:18.116Z,71.37
2019-02-24T06:39:58.726Z,71.15
2019-02-24T06:40:39.340Z,71.44
2019-02-24T06:41:19.935Z,71.44
2019-02-24T06:42:00.576Z,71.53
2019-02-24T06:42:41.182Z,71.28
2019-02-24T06:43:21.788Z,71.25
2019-02-24T06:44:02.394Z,71.37
2019-02-24T06:44:42.994Z,71.25
2019-02-24T06:45:23.588Z,71.53
2019-02-24T06:46:04.188Z,71.44
2019-02-24T06:46:44.792Z,71.44
2019-02-24T06:47:25.398Z,71.37
2019-02-24T06:48:06.004Z,71.57
2019-02-24T06:48:46.610Z,71.25
2019-02-24T06:49:27.216Z,71.44
2019-02-24T06:50:07.827Z,71.28
2019-02-24T06:50:48.431Z,71.47
2019-02-24T06:51:29.032Z,71.25
2019-02-24T06:52:09.658Z,71.44
2019-02-24T06:52:50.264Z,71.53
2019-02-24T06:53:30.874Z,71.44
2019-02-24T06:54:11.492Z,71.47
2019-02-24T06:54:52.119Z,71.53
2019-02-24T06:55:32.726Z,71.53
2019-02-24T06:56:13.332Z,71.44
2019-02-24T06:56:53.931Z,71.57
2019-02-24T06:57:34.542Z,71.53
2019-02-24T06:58:15.141Z,71.53
2019-02-24T06:58:55.738Z,71.44
2019-02-24T06:59:36.346Z,71.37
2019-02-24T07:00:16.951Z,71.66
2019-02-24T07:00:57.562Z,71.44
2019-02-24T07:01:38.174Z,71.53
2019-02-24T07:02:18.760Z,71.44
2019-02-24T07:02:59.344Z,71.44
2019-02-24T07:03:39.937Z,71.53
2019-02-24T07:04:20.557Z,71.34
2019-02-24T07:05:01.332Z,71.44
2019-02-24T07:05:41.914Z,71.44
2019-02-24T07:06:22.514Z,71.25
2019-02-24T07:07:03.248Z,71.63
2019-02-24T07:07:43.828Z,71.53
2019-02-24T07:08:24.438Z,71.34
2019-02-24T07:09:05.084Z,71.44
2019-02-24T07:09:45.730Z,71.53
2019-02-24T07:10:26.363Z,71.15
2019-02-24T07:11:06.980Z,71.37
2019-02-24T07:11:47.723Z,71.44
2019-02-24T07:12:28.340Z,71.44
2019-02-24T07:13:08.947Z,71.19
2019-02-24T07:13:49.603Z,71.15
2019-02-24T07:14:30.161Z,71.25
2019-02-24T07:15:10.770Z,71.15
2019-02-24T07:15:51.421Z,71.28
2019-02-24T07:16:32.042Z,71.15
2019-02-24T07:17:12.652Z,71.25
2019-02-24T07:17:53.270Z,71.34
2019-02-24T07:18:33.888Z,71.15
2019-02-24T07:19:14.511Z,71.53
2019-02-24T07:19:55.104Z,71.44
2019-02-24T07:20:35.718Z,71.25
2019-02-24T07:21:16.352Z,71.44
2019-02-24T07:21:56.962Z,71.44
2019-02-24T07:22:37.582Z,71.63
2019-02-24T07:23:18.184Z,71.44
2019-02-24T07:23:58.858Z,71.53
2019-02-24T07:24:39.472Z,71.57
2019-02-24T07:25:20.052Z,71.44
2019-02-24T07:26:00.644Z,71.44
2019-02-24T07:26:41.260Z,71.53
2019-02-24T07:27:21.896Z,71.05
2019-02-24T07:28:02.508Z,71.37
2019-02-24T07:28:43.096Z,70.96
2019-02-24T07:29:23.746Z,70.96
2019-02-24T07:30:04.374Z,70.9
2019-02-24T07:30:46.520Z,71.28
2019-02-24T07:31:27.092Z,71.19
2019-02-24T07:32:07.726Z,70.96
2019-02-24T07:32:48.318Z,71.19
2019-02-24T07:33:28.957Z,71.09
2019-02-24T07:34:09.545Z,71.57
2019-02-24T07:34:50.146Z,70.9
2019-02-24T07:35:31.244Z,71.19
2019-02-24T07:36:11.852Z,71.19
2019-02-24T07:36:52.837Z,70.7
2019-02-24T07:37:33.873Z,70.7
2019-02-24T07:38:14.496Z,70.61
2019-02-24T07:38:55.097Z,70.7
2019-02-24T07:39:35.700Z,70.7
2019-02-24T07:40:16.322Z,70.51
2019-02-24T07:40:56.945Z,70.7
2019-02-24T07:41:37.556Z,70.61
2019-02-24T07:42:18.188Z,70.51
2019-02-24T07:42:58.828Z,70.42
2019-02-24T07:43:39.475Z,70.7
2019-02-24T07:44:20.074Z,70.61
2019-02-24T07:45:00.710Z,70.23
2019-02-24T07:45:41.306Z,70.51
2019-02-24T07:46:21.914Z,70.23
2019-02-24T07:47:02.526Z,70.61
2019-02-24T07:47:43.138Z,70.32
2019-02-24T07:48:23.772Z,70.42
2019-02-24T07:49:04.790Z,70.32
2019-02-24T07:49:45.392Z,70.32
2019-02-24T07:50:26.050Z,70.32
2019-02-24T07:51:06.630Z,70.23
2019-02-24T07:51:47.245Z,70.42
2019-02-24T07:52:27.927Z,70.42
2019-02-24T07:53:08.576Z,70.51
2019-02-24T07:53:49.194Z,70.42
2019-02-24T07:54:29.812Z,70.32
2019-02-24T07:55:10.455Z,70.42
2019-02-24T07:55:51.056Z,70.32
2019-02-24T07:56:32.000Z,70.42
2019-02-24T07:57:12.610Z,70.23
2019-02-24T07:57:53.220Z,70.51
2019-02-24T07:58:33.827Z,70.51
2019-02-24T07:59:14.425Z,70.51
2019-02-24T07:59:55.034Z,70.42
2019-02-24T08:00:35.655Z,70.51
2019-02-24T08:01:16.250Z,70.51
2019-02-24T08:01:56.962Z,70.32
2019-02-24T08:02:37.548Z,70.42
2019-02-24T08:03:18.152Z,70.42
2019-02-24T08:03:58.814Z,70.51
2019-02-24T08:04:39.434Z,70.99
2019-02-24T08:05:20.039Z,71.19
2019-02-24T08:06:00.644Z,70.7
2019-02-24T08:06:41.281Z,70.7
2019-02-24T08:07:21.888Z,71.37
2019-02-24T08:08:02.649Z,71.09
2019-02-24T08:08:43.115Z,70.9
2019-02-24T08:09:23.749Z,71.47
2019-02-24T08:10:04.393Z,70.99
2019-02-24T08:10:45.013Z,71.09
2019-02-24T08:11:25.626Z,71.09
2019-02-24T08:12:06.226Z,71.47
2019-02-24T08:12:46.908Z,70.8
2019-02-24T08:13:27.505Z,71.28
2019-02-24T08:14:08.098Z,71.19
2019-02-24T08:14:48.768Z,71.19
2019-02-24T08:15:29.378Z,71.37
2019-02-24T08:16:09.987Z,71.19
2019-02-24T08:16:50.605Z,71.28
2019-02-24T08:17:31.205Z,70.99
2019-02-24T08:18:11.916Z,71.37
2019-02-24T08:18:52.540Z,71.09
2019-02-24T08:19:33.182Z,71.37
2019-02-24T08:20:13.809Z,71.19
2019-02-24T08:20:54.468Z,71.19
2019-02-24T08:21:35.032Z,71.09
2019-02-24T08:22:15.632Z,71.19
2019-02-24T08:22:56.219Z,71.09
2019-02-24T08:23:36.834Z,70.99
2019-02-24T08:24:17.539Z,71.19
2019-02-24T08:24:58.142Z,70.99
2019-02-24T08:25:38.774Z,71.28
2019-02-24T08:26:19.364Z,71.37
2019-02-24T08:27:00.007Z,70.99
2019-02-24T08:27:40.626Z,71.47
2019-02-24T08:28:21.237Z,71.57
2019-02-24T08:29:01.998Z,71.57
2019-02-24T08:29:42.652Z,71.37
2019-02-24T08:30:23.406Z,71.57
2019-02-24T08:31:04.009Z,71.57
2019-02-24T08:31:44.620Z,71.47
2019-02-24T08:32:25.266Z,71.19
2019-02-24T08:33:05.877Z,71.37
2019-02-24T08:33:46.556Z,71.19
2019-02-24T08:34:27.164Z,71.28
2019-02-24T08:35:07.900Z,71.28
2019-02-24T08:35:48.644Z,71.19
2019-02-24T08:36:29.241Z,71.95
2019-02-24T08:37:09.935Z,72.14
2019-02-24T08:37:50.578Z,71.47
2019-02-24T08:38:31.140Z,72.24
2019-02-24T08:39:11.749Z,71.47
2019-02-24T08:41:12.010Z,72.14
2019-02-24T08:41:52.646Z,71.47
2019-02-24T08:42:33.296Z,72.24
2019-02-24T08:43:13.882Z,71.86
2019-02-24T08:43:54.488Z,71.47
2019-02-24T08:44:35.153Z,71.66
2019-02-24T08:45:15.790Z,71.57